Time;durP1;ratioP1;P1;durP2;ratioP2;P2;SDS_P1;SDS_P2;PMS_P1;PMS_P2;Temp;Humidity;BMP_temperature;BMP_pressure;BME280_temperature;BME280_humidity;BME280_pressure;Samples;Min_cycle;Max_cycle;Signal;HPM_P1;HPM_P2
2022/12/27 00:01:55;;;;;;;10.00;2.50;;;6.30;99.90;;;;;;5093118;28;20253;-79
2022/12/27 00:04:24;;;;;;;7.00;2.97;;;6.20;99.90;;;;;;5092965;28;20203;-68
2022/12/27 00:06:53;;;;;;;6.30;3.03;;;6.30;99.90;;;;;;5092929;28;20237;-79
2022/12/27 00:09:22;;;;;;;7.20;3.57;;;6.20;99.90;;;;;;5092051;28;20228;-79
2022/12/27 00:11:52;;;;;;;7.93;3.13;;;6.20;99.90;;;;;;5093124;28;20200;-78
2022/12/27 00:14:27;;;;;;;6.37;3.50;;;6.10;99.90;;;;;;5092917;28;20200;-68
2022/12/27 00:16:56;;;;;;;8.37;2.93;;;6.20;99.90;;;;;;5092770;28;20199;-68
2022/12/27 00:19:25;;;;;;;10.07;3.60;;;6.10;99.90;;;;;;5092864;28;20210;-68
2022/12/27 00:21:54;;;;;;;11.63;3.87;;;6.10;99.90;;;;;;5091411;28;20219;-67
2022/12/27 00:24:23;;;;;;;12.53;4.03;;;6.10;99.90;;;;;;5092800;28;20234;-68
2022/12/27 00:26:53;;;;;;;12.63;3.90;;;6.20;99.90;;;;;;5092639;28;20225;-69
2022/12/27 00:29:22;;;;;;;8.57;2.97;;;6.20;99.90;;;;;;5092572;28;20679;-72
2022/12/27 00:31:51;;;;;;;14.17;3.37;;;6.10;99.90;;;;;;5091134;28;20646;-78
2022/12/27 00:34:20;;;;;;;7.00;3.37;;;6.10;99.90;;;;;;5092105;28;20311;-81
2022/12/27 00:36:49;;;;;;;14.10;2.80;;;6.10;99.90;;;;;;5092514;28;20202;-79
2022/12/27 00:39:18;;;;;;;6.63;2.93;;;6.10;99.90;;;;;;5091252;28;20256;-73
2022/12/27 00:41:47;;;;;;;10.30;3.67;;;6.00;99.90;;;;;;5091602;28;20729;-73
2022/12/27 00:44:18;;;;;;;12.03;3.13;;;6.00;99.90;;;;;;5091862;28;20246;-69
2022/12/27 00:46:47;;;;;;;14.93;3.63;;;6.00;99.90;;;;;;5091107;28;20198;-71
2022/12/27 00:49:16;;;;;;;12.03;2.93;;;6.00;99.90;;;;;;5091643;28;20219;-69
2022/12/27 00:51:45;;;;;;;8.57;2.83;;;6.00;99.90;;;;;;5091679;28;20298;-68
2022/12/27 00:54:14;;;;;;;11.27;2.57;;;6.00;99.90;;;;;;5091723;28;20254;-68
2022/12/27 00:56:43;;;;;;;14.70;3.83;;;6.00;99.90;;;;;;5092189;28;20213;-68
2022/12/27 00:59:12;;;;;;;10.57;3.50;;;6.00;99.90;;;;;;5092210;28;20598;-68
2022/12/27 01:01:43;;;;;;;16.07;4.17;;;6.00;99.90;;;;;;5092212;28;20203;-68
2022/12/27 01:04:14;;;;;;;15.13;3.67;;;6.00;99.90;;;;;;5091951;28;20191;-70
2022/12/27 01:06:44;;;;;;;13.60;3.10;;;6.00;99.90;;;;;;5091887;28;20310;-72
2022/12/27 01:09:13;;;;;;;11.33;2.97;;;6.10;99.90;;;;;;5091780;28;20224;-68
2022/12/27 01:11:42;;;;;;;10.70;3.63;;;6.10;99.90;;;;;;5092049;28;20599;-71
2022/12/27 01:14:11;;;;;;;12.03;3.60;;;6.00;99.90;;;;;;5091800;28;20202;-69
2022/12/27 01:16:40;;;;;;;11.73;3.60;;;5.90;99.90;;;;;;5091454;28;20680;-80
2022/12/27 01:19:10;;;;;;;13.77;4.23;;;6.00;99.90;;;;;;5091808;28;20570;-69
2022/12/27 01:21:42;;;;;;;13.10;3.53;;;6.00;99.90;;;;;;5091791;28;20206;-74
2022/12/27 01:24:11;;;;;;;17.03;4.00;;;6.00;99.90;;;;;;5091777;28;20289;-69
2022/12/27 01:26:40;;;;;;;17.40;4.67;;;5.90;99.90;;;;;;5090934;28;20188;-68
2022/12/27 01:29:12;;;;;;;12.13;3.83;;;5.90;99.90;;;;;;5074986;28;20699;-68
2022/12/27 01:31:41;;;;;;;11.83;3.73;;;5.80;99.90;;;;;;5091752;28;20200;-69
2022/12/27 01:34:11;;;;;;;16.93;4.13;;;5.90;99.90;;;;;;5091472;28;20194;-68
2022/12/27 01:36:40;;;;;;;12.57;3.93;;;5.90;99.90;;;;;;5091799;28;20231;-74
2022/12/27 01:39:10;;;;;;;17.00;3.30;;;5.90;99.90;;;;;;5091582;28;20236;-68
2022/12/27 01:44:55;;;;;;;16.80;3.97;;;5.90;99.90;;;;;;5091712;28;20198;-68
2022/12/27 01:47:46;;;;;;;16.80;3.73;;;5.90;99.90;;;;;;5009438;28;20208;-73
2022/12/27 01:50:23;;;;;;;13.03;4.00;;;6.00;99.90;;;;;;5009440;28;20233;-77
2022/12/27 01:52:58;;;;;;;18.23;5.57;;;5.90;99.90;;;;;;5009547;28;20243;-70
2022/12/27 01:55:33;;;;;;;19.03;3.90;;;5.90;99.90;;;;;;5009629;28;20237;-68
2022/12/27 01:58:09;;;;;;;8.30;3.30;;;5.90;99.90;;;;;;5009677;28;20690;-77
2022/12/27 02:00:42;;;;;;;10.13;2.77;;;6.00;99.90;;;;;;4992911;28;20221;-69
2022/12/27 02:03:13;;;;;;;16.77;7.47;;;5.90;99.90;;;;;;5009513;28;20221;-70
2022/12/27 02:05:44;;;;;;;17.07;4.23;;;5.90;99.90;;;;;;5009191;28;20680;-67
2022/12/27 02:08:24;;;;;;;13.87;5.17;;;5.90;99.90;;;;;;5009336;28;20229;-67
2022/12/27 02:10:53;;;;;;;16.10;4.93;;;5.90;99.90;;;;;;5009239;28;20233;-67
2022/12/27 02:13:23;;;;;;;14.73;4.83;;;5.90;99.90;;;;;;5009359;28;20204;-78
2022/12/27 02:15:52;;;;;;;13.30;3.90;;;5.90;99.90;;;;;;4992922;28;20241;-68
2022/12/27 02:18:21;;;;;;;16.43;4.07;;;6.00;99.90;;;;;;5009004;28;20300;-74
2022/12/27 02:21:25;;;;;;;16.03;4.50;;;6.00;99.90;;;;;;5009221;28;20202;-69
2022/12/27 02:24:16;;;;;;;21.93;4.10;;;6.00;99.90;;;;;;5034448;28;20212;-72
2022/12/27 02:26:52;;;;;;;9.53;3.73;;;6.10;99.90;;;;;;5091371;28;20203;-70
2022/12/27 02:29:43;;;;;;;13.37;3.57;;;6.10;99.90;;;;;;5094941;28;20195;-70
2022/12/27 02:32:16;;;;;;;12.50;4.17;;;6.10;99.90;;;;;;5095208;28;20563;-78
2022/12/27 02:34:54;;;;;;;15.40;4.53;;;6.00;99.90;;;;;;5094882;28;20263;-74
2022/12/27 02:37:25;;;;;;;14.83;4.67;;;6.00;99.90;;;;;;5094788;28;20195;-68
2022/12/27 02:39:55;;;;;;;12.63;3.60;;;5.90;99.90;;;;;;5094946;28;20639;-76
2022/12/27 02:54:29;;;;;;;11.60;4.00;;;5.90;99.90;;;;;;5032024;28;20202;-69
2022/12/27 02:57:08;;;;;;;13.90;3.53;;;5.90;99.90;;;;;;5032170;28;20208;-73
2022/12/27 03:03:27;;;;;;;15.97;3.23;;;6.00;99.90;;;;;;5031932;28;20201;-79
2022/12/27 03:06:42;;;;;;;13.67;3.50;;;5.90;99.90;;;;;;4953675;28;20208;-70
2022/12/27 03:18:31;;;;;;;11.57;3.17;;;5.90;99.90;;;;;;4941400;28;20216;-68
2022/12/27 03:26:39;;;;;;;14.47;4.00;;;5.90;99.90;;;;;;4953327;29;20242;-68
2022/12/27 03:34:51;;;;;;;19.40;4.40;;;5.90;99.90;;;;;;4936969;29;20208;-67
2022/12/27 03:40:18;;;;;;;19.53;4.13;;;6.00;99.90;;;;;;5006401;28;20217;-79
2022/12/27 03:43:10;;;;;;;11.80;3.37;;;6.00;99.90;;;;;;5028083;28;20294;-68
2022/12/27 03:48:49;;;;;;;17.43;4.00;;;5.90;99.90;;;;;;5093329;28;20223;-69
2022/12/27 03:51:22;;;;;;;15.57;4.73;;;5.90;99.90;;;;;;5093140;28;20231;-69
2022/12/27 03:53:55;;;;;;;15.47;4.53;;;5.80;99.90;;;;;;5093380;28;20196;-67
2022/12/27 03:56:24;;;;;;;12.27;3.87;;;5.90;99.90;;;;;;5093361;28;20211;-67
2022/12/27 03:58:53;;;;;;;18.53;4.20;;;5.90;99.90;;;;;;5093410;28;20664;-67
2022/12/27 04:01:22;;;;;;;12.27;3.73;;;5.90;99.90;;;;;;5093201;28;20241;-69
2022/12/27 04:03:51;;;;;;;12.70;3.63;;;5.90;99.90;;;;;;5093234;28;20231;-68
2022/12/27 04:06:21;;;;;;;12.43;3.33;;;6.00;99.90;;;;;;5092780;28;20288;-70
2022/12/27 04:36:36;;;;;;;17.87;4.73;;;6.10;99.90;;;;;;5092621;28;20192;-67
2022/12/27 04:39:06;;;;;;;10.43;4.17;;;6.10;99.90;;;;;;5092355;28;20200;-74
2022/12/27 04:55:35;;;;;;;16.67;3.70;;;6.00;99.90;;;;;;5092381;28;20196;-74
2022/12/27 04:58:04;;;;;;;17.93;4.30;;;6.00;99.90;;;;;;5092377;28;20228;-70
2022/12/27 05:03:23;;;;;;;12.27;3.97;;;5.90;99.90;;;;;;5092104;28;20245;-70
2022/12/27 05:05:53;;;;;;;12.83;4.33;;;5.90;99.90;;;;;;5092069;28;20196;-68
2022/12/27 05:14:15;;;;;;;11.27;4.03;;;5.90;99.90;;;;;;5029925;28;20206;-68
2022/12/27 05:16:44;;;;;;;11.83;4.20;;;6.00;99.90;;;;;;5029362;28;20252;-69
2022/12/27 05:19:15;;;;;;;18.07;3.90;;;6.00;99.90;;;;;;5029703;28;20209;-72
2022/12/27 05:25:33;;;;;;;10.87;3.67;;;6.10;99.90;;;;;;5029606;28;20217;-71
2022/12/27 05:27:22;;;;;;;11.93;3.60;;;6.10;99.90;;;;;;5029693;28;20287;-69
2022/12/27 05:29:51;;;;;;;13.73;4.03;;;6.10;99.90;;;;;;5029733;28;20289;-77
2022/12/27 05:32:19;;;;;;;19.20;4.73;;;6.00;99.90;;;;;;5012996;28;20234;-69
2022/12/27 05:34:48;;;;;;;11.67;4.50;;;6.00;99.90;;;;;;5029468;28;20217;-68
2022/12/27 05:37:17;;;;;;;14.77;4.00;;;6.00;99.90;;;;;;5029404;28;20249;-76
2022/12/27 05:39:46;;;;;;;13.37;4.83;;;6.10;99.90;;;;;;5029430;28;20204;-75
2022/12/27 05:42:15;;;;;;;7.30;3.50;;;6.10;99.90;;;;;;5029318;28;20201;-68
2022/12/27 05:44:45;;;;;;;11.23;4.20;;;6.10;99.90;;;;;;5029504;28;20713;-68
2022/12/27 05:47:14;;;;;;;12.30;3.70;;;6.00;99.90;;;;;;5031240;28;20621;-70
2022/12/27 05:49:43;;;;;;;7.80;3.43;;;6.00;99.90;;;;;;5091727;28;20204;-67
2022/12/27 05:52:12;;;;;;;8.07;3.50;;;6.00;99.90;;;;;;5091581;28;20220;-78
2022/12/27 05:54:41;;;;;;;13.67;4.87;;;6.00;99.90;;;;;;5091521;28;20567;-67
2022/12/27 05:57:10;;;;;;;7.87;3.27;;;5.90;99.90;;;;;;5091607;28;20251;-66
2022/12/27 05:59:39;;;;;;;6.77;3.70;;;5.90;99.90;;;;;;5091696;28;20315;-76
2022/12/27 06:02:09;;;;;;;13.07;3.77;;;5.90;99.90;;;;;;5093278;28;20272;-67
2022/12/27 06:04:38;;;;;;;12.50;4.13;;;5.90;99.90;;;;;;5095519;28;20200;-78
2022/12/27 06:07:07;;;;;;;12.60;4.13;;;5.90;99.90;;;;;;5095356;28;20219;-79
2022/12/27 06:09:36;;;;;;;8.93;3.90;;;5.80;99.90;;;;;;5095436;28;20259;-70
2022/12/27 06:12:05;;;;;;;13.00;4.23;;;5.80;99.90;;;;;;5095316;28;20218;-67
2022/12/27 06:14:35;;;;;;;11.63;4.17;;;5.80;99.90;;;;;;5095338;28;20187;-67
2022/12/27 06:17:03;;;;;;;11.40;3.47;;;5.80;99.90;;;;;;5095114;28;20192;-75
2022/12/27 06:19:34;;;;;;;14.43;4.30;;;5.70;99.90;;;;;;5095427;28;20193;-67
2022/12/27 06:22:02;;;;;;;12.63;3.87;;;5.70;99.90;;;;;;5095224;28;20604;-76
2022/12/27 06:24:31;;;;;;;9.53;3.90;;;5.70;99.90;;;;;;5095282;28;20663;-71
2022/12/27 06:27:00;;;;;;;12.97;4.30;;;5.60;99.90;;;;;;5093819;28;20618;-72
2022/12/27 06:29:29;;;;;;;8.53;3.80;;;5.60;99.90;;;;;;5095276;28;20673;-72
2022/12/27 06:31:58;;;;;;;12.13;4.00;;;5.60;99.90;;;;;;5094853;28;20223;-77
2022/12/27 06:34:27;;;;;;;18.43;4.00;;;5.70;99.90;;;;;;5094974;28;20190;-79
2022/12/27 06:36:58;;;;;;;13.67;4.67;;;5.60;99.90;;;;;;5094852;28;20188;-76
2022/12/27 06:39:26;;;;;;;12.10;4.13;;;5.60;99.90;;;;;;5093666;28;20602;-70
2022/12/27 06:41:55;;;;;;;9.07;3.97;;;5.60;99.90;;;;;;5094675;28;20239;-82
2022/12/27 06:44:25;;;;;;;9.23;4.03;;;5.60;99.90;;;;;;5094592;28;20664;-67
2022/12/27 06:46:53;;;;;;;16.30;4.20;;;5.60;99.90;;;;;;5094499;28;20199;-72
2022/12/27 06:49:23;;;;;;;14.73;5.97;;;5.60;99.90;;;;;;5094498;28;20242;-73
2022/12/27 06:51:52;;;;;;;17.37;4.60;;;5.50;99.90;;;;;;5094443;28;20719;-67
2022/12/27 06:54:29;;;;;;;9.93;4.63;;;5.50;99.90;;;;;;5094462;28;20199;-67
2022/12/27 06:56:58;;;;;;;27.53;5.30;;;5.50;99.90;;;;;;5094463;28;20211;-67
2022/12/27 06:59:26;;;;;;;16.10;5.70;;;5.50;99.90;;;;;;5094405;28;20557;-70
2022/12/27 07:01:55;;;;;;;12.00;5.27;;;5.60;99.90;;;;;;5094396;28;20572;-80
2022/12/27 07:04:24;;;;;;;28.30;9.93;;;5.60;99.90;;;;;;5094223;28;20201;-73
2022/12/27 07:06:53;;;;;;;13.23;4.53;;;5.60;99.90;;;;;;5093691;28;20226;-71
2022/12/27 07:09:22;;;;;;;12.47;4.83;;;5.60;99.90;;;;;;5093000;28;20565;-79
2022/12/27 07:11:53;;;;;;;12.73;4.47;;;5.60;99.90;;;;;;5093175;28;20221;-76
2022/12/27 07:14:22;;;;;;;11.90;4.90;;;5.50;99.90;;;;;;5092552;28;20662;-68
2022/12/27 07:16:51;;;;;;;15.40;5.30;;;5.60;99.90;;;;;;5093086;28;20187;-80
2022/12/27 07:19:19;;;;;;;12.43;4.67;;;5.60;99.90;;;;;;5093200;28;20207;-67
2022/12/27 07:21:48;;;;;;;15.53;5.13;;;5.60;99.90;;;;;;5093000;28;20204;-70
2022/12/27 07:24:17;;;;;;;12.83;4.97;;;5.60;99.90;;;;;;5093041;28;20203;-78
2022/12/27 07:26:46;;;;;;;17.67;5.47;;;5.50;99.90;;;;;;5090391;28;20197;-70
2022/12/27 07:29:16;;;;;;;14.27;5.20;;;5.50;99.90;;;;;;5091177;28;20841;-72
2022/12/27 07:31:45;;;;;;;19.43;6.27;;;5.40;99.90;;;;;;5091871;28;20302;-71
2022/12/27 07:34:14;;;;;;;13.97;6.63;;;5.40;99.90;;;;;;5093364;28;20200;-72
2022/12/27 07:36:43;;;;;;;11.83;4.97;;;5.50;99.90;;;;;;5093355;28;20252;-75
2022/12/27 07:39:15;;;;;;;13.43;4.60;;;5.50;99.90;;;;;;5093224;28;20227;-80
2022/12/27 07:41:44;;;;;;;8.30;4.70;;;5.50;99.90;;;;;;5091294;28;20204;-80
2022/12/27 07:44:16;;;;;;;14.20;4.83;;;5.50;99.90;;;;;;5091682;28;20203;-75
2022/12/27 07:46:45;;;;;;;16.57;4.50;;;5.60;99.90;;;;;;5092956;28;20218;-68
2022/12/27 07:49:14;;;;;;;8.80;5.00;;;5.50;99.90;;;;;;5092858;28;20243;-69
2022/12/27 07:51:45;;;;;;;16.63;5.77;;;5.50;99.90;;;;;;5093689;28;20245;-70
2022/12/27 07:54:14;;;;;;;14.03;5.10;;;5.50;99.90;;;;;;5093710;28;20680;-70
2022/12/27 07:56:43;;;;;;;16.97;5.67;;;5.50;99.90;;;;;;5093084;28;20274;-69
2022/12/27 07:59:13;;;;;;;9.67;3.67;;;5.40;99.90;;;;;;5093539;28;20613;-69
2022/12/27 08:04:26;;;;;;;8.63;4.47;;;5.30;99.90;;;;;;5092767;28;20617;-69
2022/12/27 08:07:00;;;;;;;17.57;4.20;;;5.30;99.90;;;;;;5030622;28;20340;-68
2022/12/27 08:09:32;;;;;;;11.50;4.33;;;5.30;99.90;;;;;;5031061;28;20275;-68
2022/12/27 08:12:01;;;;;;;47.87;21.53;;;5.20;99.90;;;;;;5030478;28;20206;-69
2022/12/27 08:14:30;;;;;;;15.00;5.30;;;5.30;99.90;;;;;;5030995;28;20760;-67
2022/12/27 08:17:05;;;;;;;12.80;4.30;;;5.30;99.90;;;;;;5014284;28;20718;-67
2022/12/27 08:19:34;;;;;;;16.03;5.40;;;5.20;99.90;;;;;;5030612;28;20216;-68
2022/12/27 08:22:04;;;;;;;11.13;5.37;;;5.20;99.90;;;;;;5013650;28;20227;-67
2022/12/27 08:24:33;;;;;;;17.60;6.47;;;5.20;99.90;;;;;;5045623;28;20266;-66
2022/12/27 08:27:02;;;;;;;16.77;4.73;;;5.10;99.90;;;;;;5092198;28;20202;-73
2022/12/27 08:29:31;;;;;;;10.77;3.93;;;5.20;99.90;;;;;;5092864;28;20222;-68
2022/12/27 08:32:01;;;;;;;18.13;4.67;;;5.20;99.90;;;;;;5092693;28;20299;-72
2022/12/27 08:34:30;;;;;;;19.90;5.60;;;5.30;99.90;;;;;;5092992;28;20195;-68
2022/12/27 08:37:00;;;;;;;9.93;4.27;;;5.20;99.90;;;;;;5093085;28;20194;-68
2022/12/27 08:39:30;;;;;;;13.87;4.27;;;5.20;99.90;;;;;;5092442;28;20194;-68
2022/12/27 08:41:59;;;;;;;9.60;3.63;;;5.20;99.90;;;;;;5092554;28;20265;-68
2022/12/27 08:44:28;;;;;;;12.27;4.30;;;5.20;99.90;;;;;;5092933;28;20636;-69
2022/12/27 08:46:58;;;;;;;10.17;4.03;;;5.30;99.90;;;;;;5092741;28;20256;-69
2022/12/27 08:49:28;;;;;;;9.57;4.10;;;5.20;99.90;;;;;;5091024;28;20193;-68
2022/12/27 08:51:57;;;;;;;12.57;4.67;;;5.20;99.90;;;;;;5091991;28;20543;-67
2022/12/27 08:54:26;;;;;;;13.73;6.93;;;5.30;99.90;;;;;;5092166;28;20227;-68
2022/12/27 08:56:55;;;;;;;8.43;4.53;;;5.30;99.90;;;;;;5091706;28;20230;-69
2022/12/27 08:59:24;;;;;;;13.03;5.07;;;5.30;99.90;;;;;;5091682;28;20206;-67
2022/12/27 09:01:53;;;;;;;5.97;3.60;;;5.30;99.90;;;;;;5092394;28;20565;-71
2022/12/27 09:04:22;;;;;;;10.40;4.37;;;5.30;99.90;;;;;;5092049;28;20199;-66
2022/12/27 09:06:52;;;;;;;13.40;4.83;;;5.20;99.90;;;;;;5091888;28;20283;-66
2022/12/27 09:09:21;;;;;;;7.67;3.90;;;5.20;99.90;;;;;;5090878;28;20286;-66
2022/12/27 09:11:50;;;;;;;11.50;4.40;;;5.20;99.90;;;;;;5091840;28;20264;-67
2022/12/27 09:14:20;;;;;;;9.63;3.93;;;5.30;99.90;;;;;;5091729;28;20273;-68
2022/12/27 09:16:50;;;;;;;11.80;5.07;;;5.40;99.90;;;;;;5091832;28;20738;-67
2022/12/27 09:19:19;;;;;;;14.77;4.33;;;5.30;99.90;;;;;;5091720;28;20671;-66
2022/12/27 09:21:48;;;;;;;11.80;4.20;;;5.30;99.90;;;;;;5091651;28;20195;-68
2022/12/27 09:24:18;;;;;;;10.30;4.20;;;5.30;99.90;;;;;;5091437;28;20725;-66
2022/12/27 09:26:47;;;;;;;14.30;4.30;;;5.20;99.90;;;;;;5091310;28;20203;-67
2022/12/27 09:29:17;;;;;;;9.43;4.50;;;5.20;99.90;;;;;;5091743;28;20197;-67
2022/12/27 09:31:45;;;;;;;6.63;4.37;;;5.20;99.90;;;;;;5091485;28;20203;-66
2022/12/27 09:34:14;;;;;;;10.57;4.57;;;5.20;99.90;;;;;;5090661;28;20589;-67
2022/12/27 09:36:43;;;;;;;7.07;3.57;;;5.10;99.90;;;;;;5094606;28;20199;-67
2022/12/27 09:39:12;;;;;;;7.13;4.23;;;5.10;99.90;;;;;;5094636;28;20230;-68
2022/12/27 09:41:58;;;;;;;8.47;3.97;;;5.10;99.90;;;;;;5095473;28;20195;-69
2022/12/27 09:44:52;;;;;;;15.43;4.50;;;5.10;99.90;;;;;;5095559;28;20210;-68
2022/12/27 09:47:26;;;;;;;15.50;5.50;;;5.10;99.90;;;;;;5095610;28;20221;-67
2022/12/27 09:50:00;;;;;;;12.77;4.40;;;5.30;99.90;;;;;;5095566;28;20254;-68
2022/12/27 09:52:34;;;;;;;10.90;5.00;;;5.40;99.90;;;;;;5095499;28;20203;-68
2022/12/27 09:55:07;;;;;;;11.37;4.27;;;5.40;99.90;;;;;;5095453;28;20233;-68
2022/12/27 09:57:40;;;;;;;9.53;3.87;;;5.40;99.90;;;;;;5095531;28;20590;-69
2022/12/27 10:00:16;;;;;;;10.70;4.90;;;5.40;99.90;;;;;;5095418;28;20283;-69
2022/12/27 10:02:45;;;;;;;9.23;4.10;;;5.40;99.90;;;;;;5095406;28;20194;-69
2022/12/27 10:05:22;;;;;;;8.17;4.70;;;5.30;99.90;;;;;;5095072;28;20210;-68
2022/12/27 10:08:07;;;;;;;7.83;4.57;;;5.40;99.90;;;;;;5095222;28;20317;-66
2022/12/27 10:10:44;;;;;;;10.40;5.10;;;5.40;99.90;;;;;;5095073;28;20224;-68
2022/12/27 10:13:30;;;;;;;10.23;4.80;;;5.20;99.90;;;;;;5095227;28;20276;-67
2022/12/27 10:16:10;;;;;;;6.73;5.03;;;5.20;99.90;;;;;;5087252;28;20744;-67
2022/12/27 10:18:49;;;;;;;12.23;5.77;;;5.20;99.90;;;;;;5095830;28;20209;-71
2022/12/27 10:21:21;;;;;;;10.97;5.73;;;5.30;99.90;;;;;;5094967;28;20192;-69
2022/12/27 10:23:56;;;;;;;14.63;5.97;;;5.30;99.90;;;;;;5094841;28;20234;-68
2022/12/27 10:26:25;;;;;;;10.07;4.37;;;5.30;99.90;;;;;;5094923;28;20209;-70
2022/12/27 10:29:00;;;;;;;11.57;5.63;;;5.30;99.90;;;;;;5094982;28;20200;-68
2022/12/27 10:31:32;;;;;;;9.57;5.30;;;5.10;99.90;;;;;;5094905;28;20203;-73
2022/12/27 10:34:00;;;;;;;8.60;4.83;;;5.10;99.90;;;;;;5094790;28;20633;-69
2022/12/27 10:36:34;;;;;;;6.40;4.27;;;5.10;99.90;;;;;;5094977;28;20194;-68
2022/12/27 10:39:04;;;;;;;7.00;4.67;;;5.00;99.90;;;;;;5094841;28;20240;-69
2022/12/27 10:41:44;;;;;;;8.43;5.43;;;5.10;99.90;;;;;;5094760;28;20195;-67
2022/12/27 10:44:14;;;;;;;9.63;5.50;;;5.00;99.90;;;;;;5094599;28;20276;-73
2022/12/27 10:46:49;;;;;;;16.97;5.80;;;5.10;99.90;;;;;;5094481;28;20255;-74
2022/12/27 10:49:27;;;;;;;15.63;5.63;;;5.10;99.90;;;;;;5093588;28;20664;-68
2022/12/27 10:51:58;;;;;;;10.60;5.60;;;5.10;99.90;;;;;;5094569;28;20679;-71
2022/12/27 10:54:28;;;;;;;10.80;5.53;;;5.10;99.90;;;;;;5094337;28;20221;-67
2022/12/27 10:57:15;;;;;;;9.87;6.00;;;5.10;99.90;;;;;;5094322;28;20196;-66
2022/12/27 10:59:46;;;;;;;9.70;5.80;;;5.10;99.90;;;;;;5094400;28;20693;-70
2022/12/27 11:02:19;;;;;;;14.07;5.33;;;5.10;99.90;;;;;;5094262;28;20203;-69
2022/12/27 11:04:58;;;;;;;7.93;5.10;;;5.10;99.90;;;;;;5094297;28;20198;-74
2022/12/27 11:07:32;;;;;;;11.40;5.73;;;5.10;99.90;;;;;;5093908;28;20650;-70
2022/12/27 11:10:15;;;;;;;7.60;4.67;;;5.10;99.90;;;;;;5094169;28;20244;-68
2022/12/27 11:12:58;;;;;;;8.27;4.93;;;5.10;99.90;;;;;;5094195;28;20207;-67
2022/12/27 11:15:31;;;;;;;12.47;5.83;;;5.10;99.90;;;;;;5094044;28;20571;-73
2022/12/27 11:18:02;;;;;;;7.47;4.63;;;5.10;99.90;;;;;;5094081;28;20666;-72
2022/12/27 11:20:33;;;;;;;11.53;4.97;;;5.20;99.90;;;;;;5094077;28;20203;-71
2022/12/27 11:23:05;;;;;;;10.10;4.87;;;5.20;99.90;;;;;;5093165;28;20210;-68
2022/12/27 11:25:35;;;;;;;10.03;4.40;;;5.30;99.90;;;;;;5093916;28;20208;-72
2022/12/27 11:28:06;;;;;;;11.50;4.47;;;5.30;99.90;;;;;;5093777;28;20229;-67
2022/12/27 11:30:39;;;;;;;10.50;4.63;;;5.30;99.90;;;;;;5093858;28;20225;-71
2022/12/27 11:33:19;;;;;;;6.17;4.30;;;5.30;99.90;;;;;;5093766;28;20193;-69
2022/12/27 11:35:54;;;;;;;10.50;4.73;;;5.30;99.90;;;;;;5092821;28;20220;-66
2022/12/27 11:38:26;;;;;;;9.40;4.63;;;5.30;99.90;;;;;;5093535;28;20205;-67
2022/12/27 11:41:02;;;;;;;14.10;7.53;;;5.30;99.90;;;;;;5093537;28;20199;-70
2022/12/27 11:43:37;;;;;;;7.93;4.13;;;5.40;99.90;;;;;;5093364;28;20550;-67
2022/12/27 11:46:18;;;;;;;8.10;4.27;;;5.40;99.90;;;;;;5093817;28;20199;-66
2022/12/27 11:48:54;;;;;;;8.83;4.30;;;5.40;99.90;;;;;;5093238;28;20296;-72
2022/12/27 11:51:44;;;;;;;8.37;4.90;;;5.40;99.90;;;;;;5093248;28;20247;-66
2022/12/27 11:54:38;;;;;;;7.53;4.43;;;5.40;99.90;;;;;;5093065;28;20599;-66
2022/12/27 11:57:21;;;;;;;10.70;4.63;;;5.50;99.90;;;;;;5093113;28;20294;-66
2022/12/27 12:00:05;;;;;;;4.37;3.97;;;5.50;99.90;;;;;;5092023;28;20200;-66
2022/12/27 12:02:59;;;;;;;7.47;4.10;;;5.50;99.90;;;;;;5093178;28;20299;-67
2022/12/27 12:05:48;;;;;;;6.47;4.03;;;5.50;99.90;;;;;;5093022;28;20246;-67
2022/12/27 12:08:43;;;;;;;4.53;3.10;;;5.50;99.90;;;;;;5092715;28;20609;-68
2022/12/27 12:11:21;;;;;;;11.97;5.40;;;5.40;99.90;;;;;;5092718;28;20194;-66
2022/12/27 12:14:25;;;;;;;6.00;4.13;;;5.50;99.90;;;;;;5093009;28;20205;-66
2022/12/27 12:17:18;;;;;;;5.87;4.10;;;5.50;99.90;;;;;;5009799;28;20222;-67
2022/12/27 12:20:03;;;;;;;9.37;4.30;;;5.50;99.90;;;;;;5008576;28;20202;-68
2022/12/27 12:22:55;;;;;;;8.07;4.30;;;5.50;99.90;;;;;;5010508;28;20206;-67
2022/12/27 12:26:04;;;;;;;5.93;3.53;;;5.50;99.90;;;;;;5011029;28;20203;-67
2022/12/27 12:29:17;;;;;;;6.37;4.20;;;5.50;99.90;;;;;;4971523;28;20267;-66
2022/12/27 12:32:10;;;;;;;7.43;4.03;;;5.50;99.90;;;;;;4971074;28;20204;-65
2022/12/27 12:34:57;;;;;;;5.40;3.13;;;5.50;99.90;;;;;;4969557;28;20266;-66
2022/12/27 12:37:46;;;;;;;7.20;4.50;;;5.50;99.90;;;;;;4970765;28;20208;-67
2022/12/27 12:40:30;;;;;;;8.33;4.20;;;5.50;99.90;;;;;;4971460;28;20257;-70
2022/12/27 12:43:14;;;;;;;9.87;4.40;;;5.50;99.90;;;;;;4971145;28;20200;-68
2022/12/27 12:45:56;;;;;;;9.40;4.20;;;5.50;99.90;;;;;;4970971;28;20283;-66
2022/12/27 12:49:02;;;;;;;6.47;4.33;;;5.60;99.90;;;;;;4970928;28;20343;-67
2022/12/27 12:51:56;;;;;;;7.00;3.90;;;5.60;99.90;;;;;;4933080;29;20304;-67
2022/12/27 12:54:53;;;;;;;8.30;4.40;;;5.60;99.90;;;;;;4886121;29;20257;-67
2022/12/27 12:57:36;;;;;;;9.90;6.87;;;5.60;99.90;;;;;;4902887;29;20213;-66
2022/12/27 13:00:26;;;;;;;8.00;4.77;;;5.60;99.90;;;;;;4900624;29;20236;-67
2022/12/27 13:03:46;;;;;;;6.90;4.50;;;5.60;99.90;;;;;;4897764;29;20526;-66
2022/12/27 13:06:36;;;;;;;9.17;4.53;;;5.60;99.90;;;;;;4853333;29;20211;-67
2022/12/27 13:09:16;;;;;;;5.70;3.83;;;5.60;99.90;;;;;;4880643;29;20211;-67
2022/12/27 13:11:53;;;;;;;5.90;4.40;;;5.50;99.90;;;;;;4893807;29;20237;-69
2022/12/27 13:14:40;;;;;;;6.90;4.00;;;5.50;99.90;;;;;;4894404;29;20208;-69
2022/12/27 13:17:19;;;;;;;7.37;4.37;;;5.50;99.90;;;;;;4888084;29;20215;-70
2022/12/27 13:20:01;;;;;;;16.43;9.27;;;5.50;99.90;;;;;;4875598;29;20362;-68
2022/12/27 13:22:44;;;;;;;8.60;3.87;;;5.40;99.90;;;;;;4875396;29;20285;-70
2022/12/27 13:25:24;;;;;;;6.93;3.70;;;5.30;99.90;;;;;;4894126;29;20216;-72
2022/12/27 13:28:02;;;;;;;8.23;4.03;;;5.20;99.90;;;;;;4932959;29;20212;-68
2022/12/27 13:30:39;;;;;;;7.40;4.37;;;5.30;99.90;;;;;;4937837;28;20200;-66
2022/12/27 13:33:22;;;;;;;7.90;4.03;;;5.20;99.90;;;;;;5009404;28;20578;-68
2022/12/27 13:36:10;;;;;;;6.73;4.53;;;5.20;99.90;;;;;;5020242;28;20226;-67
2022/12/27 13:38:53;;;;;;;5.83;4.57;;;5.10;99.90;;;;;;5028856;28;20235;-66
2022/12/27 13:41:43;;;;;;;6.13;3.80;;;5.00;99.90;;;;;;5080190;28;20213;-69
2022/12/27 13:44:32;;;;;;;6.87;4.23;;;5.00;99.90;;;;;;5089159;28;20206;-73
2022/12/27 13:47:31;;;;;;;7.93;3.83;;;5.10;99.90;;;;;;5090008;28;20221;-68
2022/12/27 13:50:36;;;;;;;4.90;3.90;;;5.10;99.90;;;;;;5091456;28;20556;-69
2022/12/27 13:53:34;;;;;;;8.30;4.00;;;5.00;99.90;;;;;;5091390;28;20198;-68
2022/12/27 13:56:15;;;;;;;6.07;4.33;;;5.00;99.90;;;;;;5090809;28;20764;-67
2022/12/27 13:59:28;;;;;;;9.73;5.73;;;5.00;99.90;;;;;;5091590;28;20222;-68
2022/12/27 14:02:18;;;;;;;8.67;4.57;;;5.00;99.90;;;;;;5091194;28;21027;-70
2022/12/27 14:05:20;;;;;;;6.30;4.43;;;5.00;99.90;;;;;;5091437;28;20199;-70
2022/12/27 14:08:00;;;;;;;7.23;4.57;;;5.10;99.90;;;;;;5091191;28;20569;-69
2022/12/27 14:10:36;;;;;;;10.93;5.30;;;5.00;99.90;;;;;;5091054;28;20208;-68
2022/12/27 14:13:07;;;;;;;5.70;4.33;;;5.10;99.90;;;;;;5091331;28;20237;-69
2022/12/27 14:16:10;;;;;;;5.03;4.27;;;5.00;99.90;;;;;;5091303;28;20218;-68
2022/12/27 14:18:54;;;;;;;7.87;4.63;;;5.00;99.90;;;;;;5008879;28;20206;-67
2022/12/27 14:21:54;;;;;;;8.07;5.53;;;5.00;99.90;;;;;;5009322;28;20232;-67
2022/12/27 14:24:51;;;;;;;10.23;4.93;;;4.90;99.90;;;;;;5012297;28;20297;-69
2022/12/27 14:27:55;;;;;;;7.67;4.30;;;4.90;99.90;;;;;;5004742;28;20665;-67
2022/12/27 14:30:48;;;;;;;7.30;5.30;;;4.90;99.90;;;;;;5012550;28;20203;-71
2022/12/27 14:33:45;;;;;;;9.73;4.63;;;4.90;99.90;;;;;;5012382;28;20204;-70
2022/12/27 14:36:58;;;;;;;8.47;4.37;;;5.00;99.90;;;;;;5004444;28;20236;-69
2022/12/27 14:39:59;;;;;;;8.73;5.23;;;5.00;99.90;;;;;;4934743;29;20217;-75
2022/12/27 14:43:10;;;;;;;7.13;4.77;;;5.00;99.90;;;;;;4934510;29;20216;-68
2022/12/27 14:46:01;;;;;;;13.13;5.43;;;5.10;99.90;;;;;;4859659;29;20753;-67
2022/12/27 14:49:07;;;;;;;17.77;8.33;;;5.10;99.90;;;;;;4859544;29;20216;-70
2022/12/27 14:52:11;;;;;;;7.33;4.57;;;5.10;99.90;;;;;;4859825;29;20328;-68
2022/12/27 14:55:21;;;;;;;6.23;3.93;;;5.20;99.90;;;;;;4869501;29;20202;-68
2022/12/27 14:58:02;;;;;;;13.03;4.87;;;5.10;99.90;;;;;;4841212;29;20230;-68
2022/12/27 15:00:53;;;;;;;12.47;4.83;;;5.10;99.90;;;;;;4841088;29;20358;-71
2022/12/27 15:03:35;;;;;;;9.20;4.00;;;5.10;99.90;;;;;;4840825;29;20217;-74
2022/12/27 15:06:18;;;;;;;9.63;5.70;;;5.10;99.90;;;;;;4840883;29;20248;-68
2022/12/27 15:08:55;;;;;;;9.13;5.33;;;5.10;99.90;;;;;;4840974;29;20234;-67
2022/12/27 15:11:39;;;;;;;12.23;5.10;;;5.20;99.90;;;;;;4840808;29;20306;-69
2022/12/27 15:14:23;;;;;;;11.60;4.30;;;5.20;99.90;;;;;;4870030;29;20300;-67
2022/12/27 15:17:04;;;;;;;7.50;5.53;;;5.20;99.90;;;;;;4897286;29;20240;-68
2022/12/27 15:19:48;;;;;;;7.53;3.97;;;5.20;99.90;;;;;;4915267;29;20207;-68